createdAt,value
2018-08-24T00:04:24.111Z,93.90
2018-08-24T00:09:27.675Z,93.80
2018-08-24T00:14:30.941Z,94.10
2018-08-24T00:19:34.232Z,95.10
2018-08-24T00:24:37.499Z,96.00
2018-08-24T00:34:43.985Z,96.80
2018-08-24T00:39:47.325Z,97.00
2018-08-24T00:44:50.572Z,97.30
2018-08-24T00:49:53.896Z,97.00
2018-08-24T00:54:57.199Z,96.50
2018-08-24T01:00:00.547Z,96.20
2018-08-24T01:05:03.888Z,96.00
2018-08-24T01:10:12.551Z,95.90
2018-08-24T01:15:15.927Z,95.50
2018-08-24T01:20:23.087Z,95.20
2018-08-24T01:25:26.366Z,95.30
2018-08-24T01:30:29.670Z,95.60
2018-08-24T01:35:32.957Z,96.30
2018-08-24T01:40:36.235Z,96.50
2018-08-24T01:45:39.590Z,96.60
2018-08-24T01:50:42.935Z,97.40
2018-08-24T01:55:46.239Z,97.70
2018-08-24T02:00:49.742Z,97.40
2018-08-24T02:05:57.437Z,98.20
2018-08-24T02:11:00.765Z,98.20
2018-08-24T02:21:12.497Z,97.70
2018-08-24T02:26:15.779Z,97.70
2018-08-24T02:31:19.095Z,97.60
2018-08-24T02:36:22.494Z,97.50
2018-08-24T02:41:25.790Z,96.70
2018-08-24T02:46:29.180Z,96.90
2018-08-24T02:51:32.652Z,96.60
2018-08-24T02:56:36.083Z,97.30
2018-08-24T03:01:39.398Z,97.00
2018-08-24T03:06:42.639Z,97.00
2018-08-24T03:11:45.932Z,97.40
2018-08-24T03:16:54.567Z,97.10
2018-08-24T03:21:57.814Z,97.20
2018-08-24T03:27:01.075Z,97.20
2018-08-24T03:32:04.372Z,97.30
2018-08-24T03:37:07.876Z,97.00
2018-08-24T03:42:11.248Z,97.40
2018-08-24T03:47:14.530Z,97.80
2018-08-24T03:52:17.794Z,97.40
2018-08-24T03:57:21.116Z,97.70
2018-08-24T04:02:24.402Z,97.50
2018-08-24T04:07:27.755Z,98.20
2018-08-24T04:12:31.000Z,99.30
2018-08-24T04:17:40.580Z,99.00
2018-08-24T04:22:43.982Z,98.70
2018-08-24T04:27:47.227Z,98.40
2018-08-24T04:32:50.471Z,98.70
2018-08-24T04:37:53.863Z,97.90
2018-08-24T04:42:57.111Z,97.80
2018-08-24T04:48:00.427Z,98.90
2018-08-24T04:53:03.684Z,98.70
2018-08-24T04:58:06.942Z,98.70
2018-08-24T05:03:15.555Z,98.60
2018-08-24T05:08:18.839Z,98.70
2018-08-24T05:18:25.180Z,98.80
2018-08-24T05:23:28.404Z,99.00
2018-08-24T05:28:31.711Z,99.00
2018-08-24T05:33:35.041Z,97.90
2018-08-24T05:38:38.331Z,97.50
2018-08-24T05:43:41.594Z,97.30
2018-08-24T05:48:44.973Z,96.90
2018-08-24T05:53:48.242Z,96.90
2018-08-24T05:58:51.529Z,97.40
2018-08-24T06:03:54.855Z,97.20
2018-08-24T06:09:16.848Z,97.60
2018-08-24T06:14:20.115Z,97.70
2018-08-24T06:19:23.494Z,97.40
2018-08-24T06:24:26.900Z,97.20
2018-08-24T06:29:30.152Z,96.70
2018-08-24T06:34:33.404Z,96.80
2018-08-24T06:39:36.666Z,97.00
2018-08-24T06:44:39.986Z,97.20
2018-08-24T06:49:43.416Z,97.40
2018-08-24T06:54:46.690Z,97.70
2018-08-24T06:59:50.232Z,98.00
2018-08-24T07:04:53.519Z,97.60
2018-08-24T07:09:56.822Z,97.20
2018-08-24T07:15:00.091Z,97.10
2018-08-24T07:20:03.430Z,98.00
2018-08-24T07:25:06.783Z,98.20
2018-08-24T07:30:10.086Z,98.50
2018-08-24T07:35:13.673Z,97.90
2018-08-24T07:40:16.928Z,97.80
2018-08-24T07:50:23.263Z,97.20
2018-08-24T07:55:26.595Z,97.50
2018-08-24T08:00:29.976Z,98.10
2018-08-24T08:05:33.311Z,98.30
2018-08-24T08:10:41.443Z,99.00
2018-08-24T08:15:44.732Z,99.10
2018-08-24T08:20:48.070Z,99.10
2018-08-24T08:25:51.422Z,99.20
2018-08-24T08:30:54.690Z,98.80
2018-08-24T08:35:58.077Z,98.90
2018-08-24T08:41:01.395Z,98.70
2018-08-24T08:46:04.716Z,98.90
2018-08-24T08:51:07.992Z,98.90
2018-08-24T08:56:11.279Z,99.30
2018-08-24T09:01:14.580Z,99.10
2018-08-24T09:06:17.949Z,99.30
2018-08-24T09:11:21.229Z,98.70
2018-08-24T09:16:24.541Z,99.10
2018-08-24T09:21:33.132Z,99.10
2018-08-24T09:26:41.781Z,99.20
2018-08-24T09:31:45.071Z,99.00
2018-08-24T09:36:48.428Z,98.90
2018-08-24T09:41:51.700Z,99.00
2018-08-24T09:47:00.356Z,98.80
2018-08-24T09:52:08.789Z,98.50
2018-08-24T09:57:12.076Z,97.80
2018-08-24T10:02:20.781Z,97.90
2018-08-24T10:07:28.371Z,97.90
2018-08-24T10:12:36.033Z,97.30
2018-08-24T10:22:42.347Z,95.70
2018-08-24T10:27:45.644Z,95.30
2018-08-24T10:32:48.961Z,95.20
2018-08-24T10:42:55.237Z,95.60
2018-08-24T10:47:58.492Z,95.20
2018-08-24T10:53:01.796Z,94.40
2018-08-24T10:58:05.148Z,93.20
2018-08-24T11:03:08.411Z,93.20
2018-08-24T11:08:11.682Z,93.30
2018-08-24T11:13:14.972Z,93.50
2018-08-24T11:18:18.346Z,92.10
2018-08-24T11:28:24.711Z,91.90
2018-08-24T11:33:28.019Z,91.80
2018-08-24T11:38:31.299Z,92.10
2018-08-24T11:43:34.603Z,91.40
2018-08-24T11:48:37.906Z,90.90
2018-08-24T11:53:41.202Z,90.90
2018-08-24T11:58:44.463Z,90.10
2018-08-24T12:03:47.747Z,90.10
2018-08-24T12:08:51.022Z,89.10
2018-08-24T12:18:58.370Z,86.50
2018-08-24T12:24:01.792Z,88.00
2018-08-24T12:29:05.343Z,94.30
2018-08-24T12:34:08.724Z,96.10
2018-08-24T12:39:12.539Z,96.30
2018-08-24T12:44:15.826Z,96.60
2018-08-24T12:49:19.160Z,96.30
2018-08-24T12:54:22.431Z,96.40
2018-08-24T12:59:25.739Z,96.50
2018-08-24T13:04:29.063Z,95.40
2018-08-24T13:09:32.378Z,96.00
2018-08-24T13:14:35.704Z,97.00
2018-08-24T13:19:38.961Z,96.30
2018-08-24T13:24:42.251Z,95.30
2018-08-24T13:29:45.568Z,95.20
2018-08-24T13:34:48.831Z,95.70
2018-08-24T13:39:52.100Z,96.30
2018-08-24T13:44:55.503Z,96.10
2018-08-24T13:49:58.702Z,95.90
2018-08-24T13:55:01.979Z,97.20
2018-08-24T14:00:05.301Z,97.60
2018-08-24T14:05:08.588Z,97.40
2018-08-24T14:10:11.856Z,97.80
2018-08-24T14:15:15.105Z,97.90
2018-08-24T14:20:25.695Z,98.00
2018-08-24T14:25:29.131Z,98.90
2018-08-24T14:30:32.380Z,98.10
2018-08-24T14:35:35.703Z,98.70
2018-08-24T14:40:39.968Z,98.50
2018-08-24T14:45:43.389Z,98.50
2018-08-24T14:50:46.724Z,99.00
2018-08-24T14:55:50.012Z,98.90
2018-08-24T15:00:53.324Z,99.30
2018-08-24T15:05:56.619Z,99.70
2018-08-24T15:10:59.910Z,99.90
2018-08-24T15:16:03.282Z,99.60
2018-08-24T15:21:06.672Z,99.50
2018-08-24T15:26:10.065Z,99.60
2018-08-24T15:31:13.352Z,99.90
2018-08-24T15:36:16.652Z,99.80
2018-08-24T15:41:19.935Z,99.40
2018-08-24T15:46:23.401Z,99.50
2018-08-24T15:51:26.636Z,99.40
2018-08-24T15:56:29.941Z,99.30
2018-08-24T16:01:33.236Z,99.30
2018-08-24T16:06:36.496Z,99.20
2018-08-24T16:11:40.131Z,98.90
2018-08-24T16:16:43.407Z,99.20
2018-08-24T16:21:46.731Z,98.90
2018-08-24T16:26:50.045Z,98.50
2018-08-24T16:31:53.323Z,98.70
2018-08-24T16:36:56.598Z,97.80
2018-08-24T16:41:59.825Z,98.20
2018-08-24T16:47:03.108Z,98.10
2018-08-24T16:52:06.423Z,97.60
2018-08-24T16:57:09.779Z,96.40
2018-08-24T17:02:13.042Z,95.80
2018-08-24T17:07:16.299Z,95.70
2018-08-24T17:12:19.584Z,96.00
2018-08-24T17:17:22.811Z,96.60
2018-08-24T17:22:26.216Z,96.50
2018-08-24T17:27:29.539Z,97.10
2018-08-24T17:32:32.822Z,98.10
2018-08-24T17:37:36.461Z,98.30
2018-08-24T17:42:39.744Z,98.40
2018-08-24T17:47:43.049Z,97.70
2018-08-24T17:52:46.435Z,97.80
2018-08-24T17:57:49.853Z,97.70
2018-08-24T18:02:53.195Z,97.80
2018-08-24T18:07:56.479Z,98.10
2018-08-24T18:12:59.787Z,98.20
2018-08-24T18:18:03.833Z,97.60
2018-08-24T18:23:07.128Z,97.30
2018-08-24T18:28:10.386Z,97.70
2018-08-24T18:33:13.764Z,97.60
2018-08-24T18:38:17.067Z,97.50
2018-08-24T18:43:20.603Z,97.30
2018-08-24T18:48:24.033Z,97.80
2018-08-24T18:53:28.468Z,98.40
2018-08-24T18:58:32.695Z,98.70
2018-08-24T19:03:37.002Z,98.30
2018-08-24T19:08:40.811Z,98.30
2018-08-24T19:13:44.257Z,98.10
2018-08-24T19:18:53.218Z,97.80
2018-08-24T19:23:57.068Z,98.10
2018-08-24T19:29:05.742Z,98.30
2018-08-24T19:34:09.783Z,98.10
2018-08-24T19:39:14.596Z,98.50
2018-08-24T19:49:21.782Z,97.70
2018-08-24T19:54:25.106Z,97.90
2018-08-24T19:59:28.375Z,97.80
2018-08-24T20:04:33.037Z,97.60
2018-08-24T20:09:41.789Z,97.90
2018-08-24T20:14:50.347Z,97.40
2018-08-24T20:19:53.722Z,97.90
2018-08-24T20:24:57.184Z,97.80
2018-08-24T20:30:00.685Z,97.70
2018-08-24T20:35:04.046Z,97.50
2018-08-24T20:40:07.452Z,97.20
2018-08-24T20:45:10.751Z,97.30
2018-08-24T20:50:14.063Z,97.20
2018-08-24T20:55:17.811Z,96.80
2018-08-24T21:00:21.067Z,96.90
2018-08-24T21:05:24.411Z,97.00
2018-08-24T21:10:27.768Z,97.40
2018-08-24T21:15:31.053Z,97.00
2018-08-24T21:25:37.450Z,96.90
2018-08-24T21:35:43.877Z,97.60
2018-08-24T21:40:47.138Z,97.20
2018-08-24T21:45:50.459Z,97.30
2018-08-24T21:50:53.739Z,97.20
2018-08-24T21:55:57.036Z,97.10
2018-08-24T22:01:00.376Z,96.90
2018-08-24T22:11:06.826Z,97.10
2018-08-24T22:16:10.124Z,97.40
2018-08-24T22:21:13.514Z,97.50
2018-08-24T22:31:19.980Z,97.60
2018-08-24T22:36:23.237Z,97.40
2018-08-24T22:41:26.664Z,97.10
2018-08-24T22:46:29.940Z,97.60
2018-08-24T22:51:33.228Z,97.20
2018-08-24T22:56:36.521Z,97.30
2018-08-24T23:01:39.792Z,97.90
2018-08-24T23:11:46.039Z,97.10
2018-08-24T23:16:49.380Z,97.30
2018-08-24T23:21:52.700Z,97.60
2018-08-24T23:26:56.007Z,97.60
2018-08-24T23:31:59.275Z,97.30
2018-08-24T23:37:02.599Z,97.70
2018-08-24T23:42:05.890Z,97.40
2018-08-24T23:47:09.136Z,97.30
2018-08-24T23:52:12.559Z,97.60
2018-08-24T23:57:15.855Z,97.30
